Terminal Aerodrome Forecast
Issued by NWS Mt. Holly, NJ

Home | Current Version | Previous Version | Text Only | Print | Product List | Glossary On
Versions: 1 2 3 4 5 6 7 8 9 10 11 12 13 14 15 16 17 18 19 20
000
FTUS41 KPHI 211100 AAA
TAFRDG
TAF AMD
KRDG 211137Z 2112/2212 20003KT P6SM OVC080
      TEMPO 2112/2113 3SM BR
     FM211500 33005KT P6SM VCSH BKN080
     FM211800 36005KT P6SM -SHRA BKN050
     FM212300 01003KT 6SM -SHRA OVC040
     FM220600 01007KT 6SM -RA SCT020 OVC035
     FM221000 01009KT 4SM -RA BR OVC020=

USA.gov is the U.S. government's official web portal to all federal, state and local government web resources and services.